Time;durP1;ratioP1;P1;durP2;ratioP2;P2;SDS_P1;SDS_P2;PMS_P1;PMS_P2;Temp;Humidity;BMP_temperature;BMP_pressure;BME280_temperature;BME280_humidity;BME280_pressure;Samples;Min_cycle;Max_cycle;Signal;HPM_P1;HPM_P2
2022/03/14 00:00:50;;;;;;;;;;;21.00;23.30;;;;;;5123731;27;19923;-56
2022/03/14 00:03:16;;;;;;;;;;;21.20;22.90;;;;;;5127294;27;20063;-59
2022/03/14 00:05:42;;;;;;;;;;;21.10;22.90;;;;;;5118859;27;19972;-56
2022/03/14 00:08:08;;;;;;;;;;;21.10;22.70;;;;;;5126840;27;20271;-61
2022/03/14 00:10:34;;;;;;;;;;;21.20;22.60;;;;;;5122360;27;20014;-51
2022/03/14 00:13:00;;;;;;;;;;;21.10;22.80;;;;;;5122380;27;19966;-50
2022/03/14 00:15:31;;;;;;;;;;;21.20;22.70;;;;;;5127906;27;19942;-55
2022/03/14 00:17:58;;;;;;;;;;;21.10;22.80;;;;;;5122528;27;19923;-57
2022/03/14 00:20:24;;;;;;;;;;;21.00;22.80;;;;;;5122016;27;20271;-53
2022/03/14 00:22:51;;;;;;;;;;;21.30;22.50;;;;;;5126156;27;20298;-54
2022/03/14 00:25:17;;;;;;;;;;;21.10;22.90;;;;;;5119007;27;20367;-58
2022/03/14 00:27:42;;;;;;;;;;;21.30;22.60;;;;;;5126967;27;19953;-54
2022/03/14 00:30:10;;;;;;;;;;;20.90;22.90;;;;;;5121903;27;19931;-61
2022/03/14 00:32:36;;;;;;;;;;;21.20;22.60;;;;;;5122231;27;19931;-59
2022/03/14 00:35:02;;;;;;;;;;;21.00;22.70;;;;;;5127346;27;19928;-60
2022/03/14 00:37:28;;;;;;;;;;;21.30;22.20;;;;;;5122283;27;19931;-53
2022/03/14 00:39:53;;;;;;;;;;;21.00;22.10;;;;;;5120626;27;19927;-58
2022/03/14 00:42:21;;;;;;;;;;;21.20;21.70;;;;;;5124166;27;19988;-61
2022/03/14 00:44:50;;;;;;;;;;;20.90;21.50;;;;;;5120543;27;19924;-53
2022/03/14 00:47:16;;;;;;;;;;;21.30;21.10;;;;;;5123428;27;19970;-51
2022/03/14 00:49:43;;;;;;;;;;;21.10;21.10;;;;;;5125411;27;19924;-59
2022/03/14 00:52:08;;;;;;;;;;;21.20;21.10;;;;;;5121651;27;19923;-51
2022/03/14 00:54:34;;;;;;;;;;;21.10;21.30;;;;;;5127122;27;19935;-60
2022/03/14 00:57:00;;;;;;;;;;;21.20;21.30;;;;;;5121940;27;20670;-58
2022/03/14 00:59:27;;;;;;;;;;;21.10;21.50;;;;;;5121174;27;19927;-57
2022/03/14 01:01:53;;;;;;;;;;;21.10;21.60;;;;;;5123390;27;19924;-62
2022/03/14 01:04:19;;;;;;;;;;;21.10;21.60;;;;;;5121200;27;19931;-58
2022/03/14 01:06:45;;;;;;;;;;;21.10;21.90;;;;;;5121676;28;20684;-59
2022/03/14 01:09:14;;;;;;;;;;;21.10;22.00;;;;;;5127209;27;19923;-58
2022/03/14 01:11:41;;;;;;;;;;;21.10;22.00;;;;;;5122002;27;19927;-56
2022/03/14 01:14:06;;;;;;;;;;;21.10;22.00;;;;;;5127295;27;20348;-53
2022/03/14 01:16:32;;;;;;;;;;;21.20;21.90;;;;;;5121934;28;20201;-55
2022/03/14 01:18:59;;;;;;;;;;;20.90;22.20;;;;;;5118843;28;19931;-54
2022/03/14 01:21:24;;;;;;;;;;;21.30;22.00;;;;;;5124884;27;19938;-49
2022/03/14 01:23:50;;;;;;;;;;;21.10;22.70;;;;;;5121217;28;19923;-60
2022/03/14 01:26:17;;;;;;;;;;;21.30;22.90;;;;;;5121557;28;19923;-50
2022/03/14 01:28:43;;;;;;;;;;;21.00;24.40;;;;;;5126569;27;20426;-50
2022/03/14 01:31:09;;;;;;;;;;;21.30;24.80;;;;;;5121641;27;19928;-61
2022/03/14 01:33:34;;;;;;;;;;;21.10;26.00;;;;;;5126787;28;19970;-57
2022/03/14 01:36:00;;;;;;;;;;;21.00;26.80;;;;;;5121828;28;20434;-59
2022/03/14 01:38:26;;;;;;;;;;;21.30;27.10;;;;;;5117955;27;20309;-56
2022/03/14 01:40:52;;;;;;;;;;;21.10;27.70;;;;;;5125924;28;20173;-60
2022/03/14 01:43:20;;;;;;;;;;;21.30;27.90;;;;;;5121306;28;19931;-59
2022/03/14 01:45:46;;;;;;;;;;;21.00;28.80;;;;;;5121434;27;20018;-60
2022/03/14 01:48:12;;;;;;;;;;;21.30;28.50;;;;;;5126972;28;20320;-50
2022/03/14 01:50:38;;;;;;;;;;;21.00;29.20;;;;;;5121278;27;19923;-62
2022/03/14 01:53:04;;;;;;;;;;;21.30;28.90;;;;;;5123306;28;19928;-55
2022/03/14 01:55:29;;;;;;;;;;;21.00;29.90;;;;;;5122871;28;19927;-58
2022/03/14 01:57:55;;;;;;;;;;;21.30;30.00;;;;;;5118639;27;19924;-58
2022/03/14 02:00:21;;;;;;;;;;;21.00;30.60;;;;;;5126290;27;19923;-60
2022/03/14 02:02:48;;;;;;;;;;;21.30;30.30;;;;;;5124077;27;20322;-49
2022/03/14 02:05:14;;;;;;;;;;;21.00;31.20;;;;;;5125198;27;19946;-58
2022/03/14 02:07:39;;;;;;;;;;;21.30;30.80;;;;;;5130284;27;19924;-53
2022/03/14 02:10:06;;;;;;;;;;;21.00;31.50;;;;;;5124801;27;19936;-59
2022/03/14 02:12:31;;;;;;;;;;;21.30;31.40;;;;;;5124460;27;19923;-59
2022/03/14 02:14:57;;;;;;;;;;;20.90;32.50;;;;;;5126467;27;19985;-61
2022/03/14 02:17:23;;;;;;;;;;;21.30;32.00;;;;;;5123775;27;19935;-59
2022/03/14 02:19:49;;;;;;;;;;;20.90;32.90;;;;;;5129996;27;20366;-52
2022/03/14 02:22:15;;;;;;;;;;;21.10;32.90;;;;;;5124980;27;19923;-55
2022/03/14 02:24:41;;;;;;;;;;;21.20;32.80;;;;;;5124812;27;19977;-55
2022/03/14 02:27:07;;;;;;;;;;;21.10;33.40;;;;;;5129889;27;20454;-58
2022/03/14 02:29:33;;;;;;;;;;;21.20;33.30;;;;;;5124667;27;20043;-49
2022/03/14 02:31:59;;;;;;;;;;;21.00;33.80;;;;;;5123732;27;20322;-59
2022/03/14 02:34:25;;;;;;;;;;;21.20;33.70;;;;;;5126166;27;20302;-57
2022/03/14 02:36:50;;;;;;;;;;;20.90;34.30;;;;;;5123459;27;19923;-59
2022/03/14 02:39:16;;;;;;;;;;;21.20;33.80;;;;;;5128248;27;19930;-57
2022/03/14 02:41:42;;;;;;;;;;;21.00;34.20;;;;;;5124232;27;19923;-56
2022/03/14 02:44:08;;;;;;;;;;;21.20;33.90;;;;;;5124192;27;19996;-51
2022/03/14 02:46:36;;;;;;;;;;;21.20;33.80;;;;;;5129658;27;20439;-49
2022/03/14 02:49:02;;;;;;;;;;;21.00;33.70;;;;;;5124042;27;19988;-58
2022/03/14 02:51:28;;;;;;;;;;;21.30;33.10;;;;;;5121651;27;20246;-59
2022/03/14 02:53:55;;;;;;;;;;;21.00;33.60;;;;;;5127573;27;19924;-59
2022/03/14 02:56:21;;;;;;;;;;;21.30;33.20;;;;;;5124151;27;19924;-54
2022/03/14 02:58:51;;;;;;;;;;;21.10;33.40;;;;;;5128430;27;19923;-57
2022/03/14 03:01:18;;;;;;;;;;;21.00;33.50;;;;;;5127003;27;19963;-53
2022/03/14 03:03:43;;;;;;;;;;;21.10;33.60;;;;;;5123837;27;19927;-58
2022/03/14 03:06:12;;;;;;;;;;;21.20;33.80;;;;;;5129287;27;19923;-53
2022/03/14 03:08:39;;;;;;;;;;;21.10;34.60;;;;;;5123335;27;20109;-57
2022/03/14 03:11:08;;;;;;;;;;;21.20;34.70;;;;;;5119743;27;19959;-57
2022/03/14 03:13:35;;;;;;;;;;;21.00;35.70;;;;;;5127100;27;19927;-58
2022/03/14 03:16:01;;;;;;;;;;;21.20;35.60;;;;;;5123622;27;19923;-58
2022/03/14 03:18:26;;;;;;;;;;;21.00;36.30;;;;;;5123422;27;20268;-58
2022/03/14 03:20:52;;;;;;;;;;;21.20;35.80;;;;;;5128931;27;19937;-59
2022/03/14 03:23:19;;;;;;;;;;;21.00;36.20;;;;;;5123479;27;19966;-60
2022/03/14 03:25:44;;;;;;;;;;;21.10;36.60;;;;;;5128444;27;19930;-58
2022/03/14 03:28:10;;;;;;;;;;;21.10;36.90;;;;;;5120764;27;20139;-55
2022/03/14 03:30:36;;;;;;;;;;;20.90;37.40;;;;;;5120675;27;19923;-58
2022/03/14 03:33:02;;;;;;;;;;;21.20;37.20;;;;;;5128309;27;20291;-57
2022/03/14 03:35:28;;;;;;;;;;;21.10;37.20;;;;;;5123099;27;19966;-58
2022/03/14 03:37:53;;;;;;;;;;;21.10;37.50;;;;;;5123540;27;19924;-54
2022/03/14 03:40:19;;;;;;;;;;;21.10;37.60;;;;;;5128593;27;19923;-52
2022/03/14 03:42:45;;;;;;;;;;;21.30;37.40;;;;;;5123144;27;20435;-58
2022/03/14 03:45:13;;;;;;;;;;;20.90;38.10;;;;;;5128089;27;20271;-50
2022/03/14 03:47:42;;;;;;;;;;;21.30;37.50;;;;;;5120152;27;19980;-57
2022/03/14 03:50:08;;;;;;;;;;;21.00;38.00;;;;;;5121870;27;19959;-52
2022/03/14 03:52:34;;;;;;;;;;;21.30;37.50;;;;;;5128193;27;19924;-58
2022/03/14 03:54:59;;;;;;;;;;;21.00;37.90;;;;;;5122839;27;19930;-58
2022/03/14 03:57:25;;;;;;;;;;;21.20;37.50;;;;;;5122771;27;19931;-57
2022/03/14 03:59:51;;;;;;;;;;;21.10;37.60;;;;;;5128112;27;19927;-57
2022/03/14 04:02:19;;;;;;;;;;;21.00;38.00;;;;;;5122394;27;19942;-60
2022/03/14 04:04:48;;;;;;;;;;;21.20;37.60;;;;;;5122728;27;19930;-54
2022/03/14 04:07:13;;;;;;;;;;;21.10;38.00;;;;;;5124504;27;19938;-52
2022/03/14 04:09:39;;;;;;;;;;;21.20;37.80;;;;;;5122241;27;20366;-57
2022/03/14 04:12:05;;;;;;;;;;;21.10;38.20;;;;;;5127730;27;19931;-59
2022/03/14 04:14:31;;;;;;;;;;;21.20;38.10;;;;;;5121084;27;19935;-57
2022/03/14 04:16:59;;;;;;;;;;;21.00;38.90;;;;;;5122276;27;19923;-56
2022/03/14 04:19:25;;;;;;;;;;;21.30;38.30;;;;;;5127991;27;19972;-59
2022/03/14 04:21:52;;;;;;;;;;;21.10;38.60;;;;;;5122071;27;19928;-60
2022/03/14 04:24:18;;;;;;;;;;;21.10;38.50;;;;;;5118731;27;20379;-55
2022/03/14 04:26:46;;;;;;;;;;;21.00;38.60;;;;;;5125846;27;19923;-54
2022/03/14 04:29:11;;;;;;;;;;;21.20;38.30;;;;;;5120741;27;20007;-59
2022/03/14 04:31:37;;;;;;;;;;;21.30;38.20;;;;;;5127564;27;20359;-50
2022/03/14 04:34:03;;;;;;;;;;;21.00;38.50;;;;;;5121938;27;20394;-56
2022/03/14 04:36:29;;;;;;;;;;;21.10;38.70;;;;;;5120705;27;19927;-55
2022/03/14 04:38:54;;;;;;;;;;;21.20;38.50;;;;;;5127564;27;19935;-55
2022/03/14 04:41:21;;;;;;;;;;;21.00;38.60;;;;;;5120064;27;19931;-56
2022/03/14 04:43:46;;;;;;;;;;;21.20;38.20;;;;;;5118161;27;19933;-56
2022/03/14 04:46:12;;;;;;;;;;;21.20;38.10;;;;;;5126789;27;19928;-59
2022/03/14 04:48:38;;;;;;;;;;;21.10;38.40;;;;;;5121928;27;19923;-56
2022/03/14 04:51:04;;;;;;;;;;;21.10;38.30;;;;;;5126353;27;20383;-57
2022/03/14 04:53:30;;;;;;;;;;;21.10;38.30;;;;;;5123198;27;19927;-57
2022/03/14 04:55:56;;;;;;;;;;;21.00;38.40;;;;;;5121646;27;20289;-58
2022/03/14 04:58:21;;;;;;;;;;;21.20;38.10;;;;;;5127031;27;19931;-54
2022/03/14 05:00:47;;;;;;;;;;;21.00;38.50;;;;;;5119360;27;20023;-59
2022/03/14 05:03:14;;;;;;;;;;;21.10;38.30;;;;;;5118772;27;19928;-58
2022/03/14 05:05:40;;;;;;;;;;;21.20;38.20;;;;;;5126808;27;20297;-58
2022/03/14 05:08:05;;;;;;;;;;;21.00;38.50;;;;;;5121532;27;19946;-53
2022/03/14 05:10:32;;;;;;;;;;;21.20;38.00;;;;;;5123543;28;19924;-56
2022/03/14 05:12:59;;;;;;;;;;;21.20;37.80;;;;;;5125777;27;20375;-59
2022/03/14 05:15:24;;;;;;;;;;;21.00;38.20;;;;;;5121720;27;20282;-59
2022/03/14 05:17:50;;;;;;;;;;;21.30;37.40;;;;;;5126854;28;19931;-57
2022/03/14 05:20:16;;;;;;;;;;;21.00;37.80;;;;;;5117873;28;19924;-55
2022/03/14 05:22:43;;;;;;;;;;;21.20;37.10;;;;;;5120302;28;19951;-59
2022/03/14 05:25:09;;;;;;;;;;;20.80;37.60;;;;;;5126847;27;19990;-58
2022/03/14 05:27:35;;;;;;;;;;;21.20;37.10;;;;;;5121441;27;19972;-57
2022/03/14 05:30:01;;;;;;;;;;;21.10;37.20;;;;;;5121672;28;19977;-55
2022/03/14 05:32:26;;;;;;;;;;;21.20;36.70;;;;;;5126980;27;20394;-59
2022/03/14 05:34:52;;;;;;;;;;;21.00;36.90;;;;;;5121506;28;20375;-59
2022/03/14 05:37:19;;;;;;;;;;;21.30;36.20;;;;;;5127067;27;19995;-58
2022/03/14 05:39:45;;;;;;;;;;;21.00;36.40;;;;;;5122023;27;20920;-53
2022/03/14 05:42:10;;;;;;;;;;;21.20;35.80;;;;;;5124910;27;19923;-56
2022/03/14 05:44:36;;;;;;;;;;;21.10;35.90;;;;;;5130693;27;20389;-58
2022/03/14 05:47:02;;;;;;;;;;;21.10;35.80;;;;;;5125695;27;19962;-57
2022/03/14 05:49:28;;;;;;;;;;;21.10;35.60;;;;;;5125361;27;19953;-55
2022/03/14 05:51:54;;;;;;;;;;;21.00;35.90;;;;;;5130622;27;19928;-59
2022/03/14 05:54:19;;;;;;;;;;;21.20;35.40;;;;;;5125093;27;19927;-59
2022/03/14 05:56:46;;;;;;;;;;;20.80;36.00;;;;;;5127821;27;19934;-54
2022/03/14 05:59:12;;;;;;;;;;;21.20;35.30;;;;;;5123564;27;20331;-56
2022/03/14 06:01:39;;;;;;;;;;;21.00;35.60;;;;;;5123719;27;19927;-58
2022/03/14 06:04:05;;;;;;;;;;;21.20;35.30;;;;;;5130366;27;19969;-57
2022/03/14 06:06:30;;;;;;;;;;;21.10;35.20;;;;;;5124992;27;19928;-57
2022/03/14 06:08:56;;;;;;;;;;;21.30;34.90;;;;;;5125115;27;19923;-56
2022/03/14 06:11:22;;;;;;;;;;;21.00;35.20;;;;;;5130253;27;19924;-57
2022/03/14 06:13:48;;;;;;;;;;;21.20;34.90;;;;;;5124473;27;20006;-57
2022/03/14 06:16:14;;;;;;;;;;;21.00;35.50;;;;;;5125289;27;19935;-55
2022/03/14 06:18:40;;;;;;;;;;;21.20;35.20;;;;;;5125075;27;19927;-59
2022/03/14 06:21:05;;;;;;;;;;;21.00;35.70;;;;;;5124578;27;19927;-55
2022/03/14 06:23:31;;;;;;;;;;;21.20;35.30;;;;;;5129925;27;19924;-58
2022/03/14 06:25:57;;;;;;;;;;;21.10;35.40;;;;;;5124630;27;19924;-58
2022/03/14 06:28:23;;;;;;;;;;;21.00;35.60;;;;;;5124481;27;19930;-51
2022/03/14 06:30:49;;;;;;;;;;;21.10;35.40;;;;;;5128497;27;19927;-59
2022/03/14 06:33:14;;;;;;;;;;;21.20;35.20;;;;;;5122867;27;19934;-56
2022/03/14 06:35:40;;;;;;;;;;;21.10;35.00;;;;;;5123811;27;19927;-59
2022/03/14 06:38:07;;;;;;;;;;;21.20;34.70;;;;;;5127486;27;20024;-58
2022/03/14 06:40:32;;;;;;;;;;;21.10;34.40;;;;;;5124256;27;20006;-55
2022/03/14 06:42:59;;;;;;;;;;;21.20;34.10;;;;;;5129715;27;19938;-56
2022/03/14 06:45:24;;;;;;;;;;;21.00;34.10;;;;;;5124281;27;20374;-57
2022/03/14 06:47:51;;;;;;;;;;;21.20;34.00;;;;;;5124062;27;19923;-57
2022/03/14 06:50:17;;;;;;;;;;;21.00;34.10;;;;;;5129189;27;19927;-59
2022/03/14 06:52:43;;;;;;;;;;;21.10;33.80;;;;;;5120400;27;19952;-58
2022/03/14 06:55:10;;;;;;;;;;;21.10;33.80;;;;;;5122716;27;19927;-53
2022/03/14 06:57:39;;;;;;;;;;;21.10;33.60;;;;;;5129322;27;19927;-58
2022/03/14 07:00:05;;;;;;;;;;;21.20;33.70;;;;;;5124321;27;20371;-58
2022/03/14 07:02:31;;;;;;;;;;;21.20;33.70;;;;;;5129316;27;19927;-57
2022/03/14 07:04:57;;;;;;;;;;;21.20;33.80;;;;;;5123914;27;19927;-59
2022/03/14 07:07:23;;;;;;;;;;;21.00;34.10;;;;;;5122356;27;19923;-57
2022/03/14 07:09:49;;;;;;;;;;;21.20;33.60;;;;;;5128234;27;19928;-57
2022/03/14 07:12:14;;;;;;;;;;;21.00;33.90;;;;;;5119787;27;20025;-51
2022/03/14 07:14:40;;;;;;;;;;;21.00;33.90;;;;;;5122889;27;20386;-53
2022/03/14 07:17:07;;;;;;;;;;;21.20;33.70;;;;;;5128837;27;20264;-59
2022/03/14 07:19:32;;;;;;;;;;;21.00;33.80;;;;;;5123461;27;20372;-61
2022/03/14 07:21:58;;;;;;;;;;;21.30;33.60;;;;;;5128863;27;19930;-59
2022/03/14 07:24:24;;;;;;;;;;;20.90;34.30;;;;;;5123318;27;19927;-55
2022/03/14 07:26:51;;;;;;;;;;;21.10;34.10;;;;;;5123192;27;19927;-58
2022/03/14 07:29:17;;;;;;;;;;;21.00;34.30;;;;;;5125858;27;20033;-52
2022/03/14 07:31:43;;;;;;;;;;;21.20;33.80;;;;;;5122011;27;19927;-59
2022/03/14 07:34:09;;;;;;;;;;;21.10;34.30;;;;;;5122944;27;19923;-56
2022/03/14 07:36:35;;;;;;;;;;;21.30;33.90;;;;;;5128733;27;19924;-57
2022/03/14 07:39:01;;;;;;;;;;;21.00;34.30;;;;;;5123109;27;19924;-53
2022/03/14 07:41:27;;;;;;;;;;;21.20;34.10;;;;;;5126882;27;19923;-59
2022/03/14 07:43:53;;;;;;;;;;;21.20;33.70;;;;;;5123896;27;20371;-59
2022/03/14 07:46:18;;;;;;;;;;;21.30;33.40;;;;;;5122642;27;20026;-58
2022/03/14 07:48:44;;;;;;;;;;;21.20;33.30;;;;;;5124213;27;19984;-59
2022/03/14 07:51:10;;;;;;;;;;;21.10;32.90;;;;;;5122092;27;20377;-58
2022/03/14 07:53:36;;;;;;;;;;;21.20;32.60;;;;;;5123049;27;19931;-57
2022/03/14 07:56:02;;;;;;;;;;;21.10;32.40;;;;;;5128452;27;19946;-55
2022/03/14 07:58:27;;;;;;;;;;;21.20;32.10;;;;;;5122821;27;19934;-58
2022/03/14 08:00:54;;;;;;;;;;;21.10;32.10;;;;;;5123541;27;20023;-56
2022/03/14 08:03:21;;;;;;;;;;;21.20;31.80;;;;;;5127067;27;20406;-58
2022/03/14 08:05:47;;;;;;;;;;;21.00;32.30;;;;;;5120997;27;19923;-61
2022/03/14 08:08:15;;;;;;;;;;;21.20;32.20;;;;;;5124693;27;19924;-59
2022/03/14 08:10:41;;;;;;;;;;;21.10;32.40;;;;;;5122023;27;19931;-60
2022/03/14 08:13:07;;;;;;;;;;;21.20;32.10;;;;;;5122481;27;19924;-58
2022/03/14 08:15:33;;;;;;;;;;;21.20;32.20;;;;;;5128062;27;20010;-60
2022/03/14 08:18:05;;;;;;;;;;;21.20;32.00;;;;;;5121431;27;19972;-59
2022/03/14 08:20:32;;;;;;;;;;;21.30;31.90;;;;;;5122706;27;19941;-58
2022/03/14 08:22:58;;;;;;;;;;;21.10;31.90;;;;;;5127243;27;20516;-58
2022/03/14 08:25:24;;;;;;;;;;;21.20;31.80;;;;;;5118483;27;19929;-49
2022/03/14 08:27:50;;;;;;;;;;;21.00;32.00;;;;;;5126308;27;19927;-53
2022/03/14 08:30:16;;;;;;;;;;;21.30;31.60;;;;;;5122967;27;19923;-56
2022/03/14 08:32:42;;;;;;;;;;;21.00;31.60;;;;;;5122348;27;20295;-61
2022/03/14 08:35:09;;;;;;;;;;;21.30;31.10;;;;;;5126341;27;19923;-54
2022/03/14 08:37:35;;;;;;;;;;;21.00;30.90;;;;;;5122277;27;19935;-62
2022/03/14 08:40:01;;;;;;;;;;;21.30;30.60;;;;;;5122158;27;20383;-59
2022/03/14 08:42:27;;;;;;;;;;;21.00;30.70;;;;;;5126252;27;19967;-60
2022/03/14 08:44:52;;;;;;;;;;;21.20;30.40;;;;;;5118646;27;19931;-50
2022/03/14 08:47:18;;;;;;;;;;;21.10;30.50;;;;;;5124120;27;19938;-56
2022/03/14 08:49:44;;;;;;;;;;;21.10;30.20;;;;;;5124946;27;20315;-57
2022/03/14 08:52:10;;;;;;;;;;;21.10;30.30;;;;;;5122185;27;19931;-58
2022/03/14 08:54:36;;;;;;;;;;;21.10;30.20;;;;;;5127732;27;19972;-55
2022/03/14 08:57:02;;;;;;;;;;;21.10;30.20;;;;;;5121913;27;20310;-56
2022/03/14 08:59:27;;;;;;;;;;;21.10;30.20;;;;;;5121641;27;19954;-61
2022/03/14 09:01:56;;;;;;;;;;;21.30;29.80;;;;;;5124071;27;19928;-52
2022/03/14 09:04:22;;;;;;;;;;;21.00;30.10;;;;;;5119819;27;19927;-60
2022/03/14 09:06:48;;;;;;;;;;;21.30;29.70;;;;;;5121662;28;19930;-59
2022/03/14 09:09:13;;;;;;;;;;;20.90;30.40;;;;;;5127172;28;20126;-60
2022/03/14 09:11:39;;;;;;;;;;;21.30;29.90;;;;;;5123185;27;19968;-58
2022/03/14 09:14:05;;;;;;;;;;;21.10;29.90;;;;;;5131417;27;19975;-60
2022/03/14 09:16:31;;;;;;;;;;;21.20;29.60;;;;;;5124622;27;19946;-48
2022/03/14 09:18:57;;;;;;;;;;;21.20;29.50;;;;;;5125531;27;19973;-58
2022/03/14 09:21:26;;;;;;;;;;;21.20;29.40;;;;;;5126871;27;20370;-56
2022/03/14 09:23:52;;;;;;;;;;;21.20;29.20;;;;;;5120852;27;19928;-57
2022/03/14 09:26:18;;;;;;;;;;;21.10;29.30;;;;;;5125882;27;20186;-60
2022/03/14 09:28:44;;;;;;;;;;;21.20;29.40;;;;;;5130750;27;19966;-57
2022/03/14 09:31:13;;;;;;;;;;;21.10;29.60;;;;;;5125782;27;19924;-59
2022/03/14 09:33:39;;;;;;;;;;;21.20;29.30;;;;;;5130859;27;19963;-59
2022/03/14 09:36:05;;;;;;;;;;;21.00;29.50;;;;;;5125902;27;19977;-57
2022/03/14 09:38:31;;;;;;;;;;;21.20;29.40;;;;;;5123091;27;19923;-55
2022/03/14 09:41:01;;;;;;;;;;;21.20;29.60;;;;;;5126945;27;20269;-58
2022/03/14 09:43:27;;;;;;;;;;;21.10;29.50;;;;;;5125335;27;21010;-55
2022/03/14 09:45:53;;;;;;;;;;;21.20;29.10;;;;;;5123649;27;19934;-57
2022/03/14 09:48:19;;;;;;;;;;;21.00;29.10;;;;;;5129579;27;19923;-58
2022/03/14 09:54:07;;;;;;;;;;;21.10;28.90;;;;;;5104693;27;19959;-57
2022/03/14 09:56:33;;;;;;;;;;;21.10;29.10;;;;;;5151324;27;19933;-58
2022/03/14 09:59:01;;;;;;;;;;;21.20;28.90;;;;;;5146077;27;19927;-51
2022/03/14 10:01:27;;;;;;;;;;;20.90;28.90;;;;;;5145847;27;19937;-52
2022/03/14 10:03:54;;;;;;;;;;;21.20;28.50;;;;;;5151155;27;19923;-59
2022/03/14 10:06:20;;;;;;;;;;;21.20;28.30;;;;;;5146188;27;20400;-56
2022/03/14 10:08:46;;;;;;;;;;;21.10;28.20;;;;;;5146283;27;20017;-58
2022/03/14 10:11:12;;;;;;;;;;;21.20;27.90;;;;;;5148948;27;19926;-58
2022/03/14 10:13:38;;;;;;;;;;;21.20;27.80;;;;;;5141373;27;19930;-56
2022/03/14 10:16:04;;;;;;;;;;;21.00;28.20;;;;;;5150954;27;19923;-55
2022/03/14 10:18:34;;;;;;;;;;;21.10;28.80;;;;;;5145902;27;19949;-60
2022/03/14 10:21:05;;;;;;;;;;;21.30;28.30;;;;;;5145399;27;19923;-49
2022/03/14 10:23:41;;;;;;;;;;;21.20;28.50;;;;;;5150279;27;20271;-58
2022/03/14 10:26:08;;;;;;;;;;;21.10;28.50;;;;;;5145608;27;20021;-56
2022/03/14 10:28:38;;;;;;;;;;;21.20;28.40;;;;;;5126891;27;20022;-49
2022/03/14 10:31:04;;;;;;;;;;;20.90;28.70;;;;;;5144862;27;19923;-54
2022/03/14 10:33:31;;;;;;;;;;;21.20;28.20;;;;;;5145219;27;19935;-58
2022/03/14 10:35:57;;;;;;;;;;;21.30;27.80;;;;;;5145230;27;20035;-51
2022/03/14 10:38:23;;;;;;;;;;;21.30;27.90;;;;;;5142112;27;19971;-61
2022/03/14 10:40:50;;;;;;;;;;;21.20;27.80;;;;;;5145244;27;19991;-58
2022/03/14 10:43:28;;;;;;;;;;;21.20;27.70;;;;;;5150238;27;20394;-56
2022/03/14 10:45:55;;;;;;;;;;;21.10;27.70;;;;;;5148846;27;19926;-60
2022/03/14 10:48:33;;;;;;;;;;;21.30;27.30;;;;;;5142881;27;19949;-58
2022/03/14 10:51:06;;;;;;;;;;;21.10;27.30;;;;;;5148260;27;19923;-57
2022/03/14 10:53:34;;;;;;;;;;;21.20;27.20;;;;;;5145542;27;20504;-51
2022/03/14 10:55:59;;;;;;;;;;;21.00;28.00;;;;;;5144670;27;20017;-59
2022/03/14 10:58:33;;;;;;;;;;;21.30;27.50;;;;;;5149978;27;19954;-56
2022/03/14 11:01:03;;;;;;;;;;;21.20;27.40;;;;;;5144733;27;19923;-59
2022/03/14 11:03:30;;;;;;;;;;;21.30;27.00;;;;;;5144665;27;20294;-57
2022/03/14 11:06:01;;;;;;;;;;;21.10;26.90;;;;;;5131670;27;20021;-57
2022/03/14 11:08:28;;;;;;;;;;;21.30;26.90;;;;;;5139324;27;19929;-55
2022/03/14 11:10:54;;;;;;;;;;;21.00;27.20;;;;;;5144586;27;19924;-60
2022/03/14 11:13:20;;;;;;;;;;;21.30;27.00;;;;;;5149935;27;19923;-62
2022/03/14 11:15:46;;;;;;;;;;;21.20;27.00;;;;;;5145290;27;20473;-54
2022/03/14 11:18:11;;;;;;;;;;;21.10;26.90;;;;;;5149740;27;19969;-56
2022/03/14 11:20:37;;;;;;;;;;;21.30;26.50;;;;;;5144545;27;19923;-58
2022/03/14 11:23:04;;;;;;;;;;;21.20;26.40;;;;;;5144253;27;19933;-53
2022/03/14 11:25:29;;;;;;;;;;;21.10;27.00;;;;;;5126832;27;19923;-57
2022/03/14 11:27:55;;;;;;;;;;;21.20;27.50;;;;;;5142538;27;19930;-54
2022/03/14 11:30:21;;;;;;;;;;;21.30;27.60;;;;;;5143681;27;19940;-60
2022/03/14 11:32:47;;;;;;;;;;;21.30;27.00;;;;;;5149355;27;19934;-58
2022/03/14 11:35:13;;;;;;;;;;;21.10;27.00;;;;;;5143216;27;19930;-58
2022/03/14 11:37:42;;;;;;;;;;;21.10;27.00;;;;;;5146857;27;19930;-57
2022/03/14 11:40:07;;;;;;;;;;;21.30;27.00;;;;;;5129704;27;19927;-57
2022/03/14 11:42:33;;;;;;;;;;;21.00;27.40;;;;;;5143643;27;19927;-59
2022/03/14 11:45:00;;;;;;;;;;;21.30;26.80;;;;;;5143979;27;19923;-56
2022/03/14 11:47:26;;;;;;;;;;;21.00;27.50;;;;;;5125394;27;20334;-61
2022/03/14 11:49:52;;;;;;;;;;;21.30;27.20;;;;;;5143656;27;19935;-52
2022/03/14 11:52:19;;;;;;;;;;;21.00;27.70;;;;;;5130448;27;20370;-60
2022/03/14 11:54:48;;;;;;;;;;;21.30;27.40;;;;;;5143578;27;19923;-57
2022/03/14 11:57:31;;;;;;;;;;;21.10;28.10;;;;;;5143612;27;19938;-59
2022/03/14 11:59:57;;;;;;;;;;;21.30;28.10;;;;;;5148843;27;20322;-50
2022/03/14 12:02:39;;;;;;;;;;;21.10;28.60;;;;;;5139312;27;19927;-59
2022/03/14 12:05:05;;;;;;;;;;;21.30;28.50;;;;;;5143267;27;20232;-51
2022/03/14 12:07:31;;;;;;;;;;;21.20;28.00;;;;;;5148562;27;19927;-60
2022/03/14 12:09:59;;;;;;;;;;;21.30;27.30;;;;;;5143310;27;19930;-56
2022/03/14 12:12:26;;;;;;;;;;;21.20;27.10;;;;;;5148147;27;20006;-58
2022/03/14 12:14:57;;;;;;;;;;;21.30;26.80;;;;;;5144986;27;20284;-49
2022/03/14 12:17:24;;;;;;;;;;;21.10;26.90;;;;;;5143348;27;19929;-61
2022/03/14 12:20:03;;;;;;;;;;;21.30;26.60;;;;;;5148583;27;19934;-58
2022/03/14 12:22:29;;;;;;;;;;;21.10;26.70;;;;;;5138046;27;19923;-58
2022/03/14 12:24:55;;;;;;;;;;;21.10;26.70;;;;;;5143410;27;19958;-59
2022/03/14 12:27:24;;;;;;;;;;;21.20;26.90;;;;;;5148431;27;20293;-60
2022/03/14 12:29:50;;;;;;;;;;;21.10;26.90;;;;;;5143069;27;19934;-58
2022/03/14 12:32:26;;;;;;;;;;;21.20;26.80;;;;;;5143019;27;20166;-60
2022/03/14 12:34:58;;;;;;;;;;;21.10;27.10;;;;;;5130177;27;19933;-56
2022/03/14 12:37:43;;;;;;;;;;;21.10;27.00;;;;;;5143141;27;20013;-59
2022/03/14 12:40:18;;;;;;;;;;;21.20;27.30;;;;;;5137575;27;19927;-54
2022/03/14 12:42:45;;;;;;;;;;;21.20;27.30;;;;;;5148253;27;20366;-60
2022/03/14 12:45:15;;;;;;;;;;;21.30;26.80;;;;;;5142789;27;19923;-58
2022/03/14 12:47:41;;;;;;;;;;;21.20;27.20;;;;;;5142761;27;19957;-58
2022/03/14 12:50:07;;;;;;;;;;;21.40;26.70;;;;;;5148133;27;19927;-58
2022/03/14 12:52:53;;;;;;;;;;;21.10;26.90;;;;;;5140450;27;20290;-61
2022/03/14 12:55:19;;;;;;;;;;;21.30;26.90;;;;;;5142420;27;20367;-54
2022/03/14 12:57:50;;;;;;;;;;;21.10;26.60;;;;;;5144030;27;20455;-60
2022/03/14 13:00:16;;;;;;;;;;;21.30;26.40;;;;;;5141829;27;19929;-57
2022/03/14 13:02:42;;;;;;;;;;;21.10;26.40;;;;;;5148029;27;20425;-54
2022/03/14 13:05:11;;;;;;;;;;;21.10;26.50;;;;;;5142921;27;19943;-58
2022/03/14 13:07:36;;;;;;;;;;;21.00;26.50;;;;;;5142735;27;19923;-56
2022/03/14 13:10:02;;;;;;;;;;;21.30;26.20;;;;;;5147730;27;19968;-56
2022/03/14 13:12:30;;;;;;;;;;;21.10;26.50;;;;;;5142400;27;19929;-60
2022/03/14 13:15:24;;;;;;;;;;;21.20;26.50;;;;;;5142441;27;20007;-47
2022/03/14 13:17:49;;;;;;;;;;;21.10;26.60;;;;;;5137319;27;20304;-58
2022/03/14 13:20:20;;;;;;;;;;;21.10;26.60;;;;;;5142563;27;19931;-58
2022/03/14 13:22:45;;;;;;;;;;;21.30;26.40;;;;;;5142124;27;20802;-60
2022/03/14 13:25:11;;;;;;;;;;;21.30;26.40;;;;;;5147583;27;19927;-61
2022/03/14 13:27:37;;;;;;;;;;;21.20;26.70;;;;;;5142046;27;20407;-59
2022/03/14 13:30:04;;;;;;;;;;;21.30;26.60;;;;;;5142382;27;19923;-58
2022/03/14 13:32:29;;;;;;;;;;;21.20;26.60;;;;;;5147647;27;19934;-58
2022/03/14 13:35:08;;;;;;;;;;;21.10;26.80;;;;;;5118242;27;20390;-49
2022/03/14 13:37:43;;;;;;;;;;;21.10;26.80;;;;;;5147421;27;20010;-57
2022/03/14 13:40:18;;;;;;;;;;;21.20;26.80;;;;;;5146503;27;19930;-49
2022/03/14 13:42:45;;;;;;;;;;;21.10;26.80;;;;;;5123573;27;19930;-58
2022/03/14 13:45:10;;;;;;;;;;;21.40;26.60;;;;;;5147657;27;19923;-61
2022/03/14 13:47:36;;;;;;;;;;;21.30;26.90;;;;;;5142101;27;19930;-60
2022/03/14 13:50:02;;;;;;;;;;;21.20;27.40;;;;;;5142285;27;19923;-53
2022/03/14 13:52:28;;;;;;;;;;;21.10;27.70;;;;;;5147015;27;19933;-58
2022/03/14 13:54:54;;;;;;;;;;;21.30;27.50;;;;;;5137844;27;20018;-58
2022/03/14 13:57:22;;;;;;;;;;;21.10;27.70;;;;;;5143134;27;19942;-59
2022/03/14 13:59:49;;;;;;;;;;;21.20;27.50;;;;;;5151278;27;20393;-59
2022/03/14 14:02:16;;;;;;;;;;;21.30;27.60;;;;;;5145974;27;19927;-59
2022/03/14 14:04:44;;;;;;;;;;;21.20;27.60;;;;;;5150460;27;19927;-53
2022/03/14 14:07:13;;;;;;;;;;;21.20;27.60;;;;;;5148106;27;19927;-60
2022/03/14 14:09:40;;;;;;;;;;;21.20;27.50;;;;;;5146140;27;19923;-58
2022/03/14 14:12:18;;;;;;;;;;;21.00;27.70;;;;;;5145988;27;19971;-60
2022/03/14 14:14:46;;;;;;;;;;;21.30;27.40;;;;;;5144221;27;20429;-60
2022/03/14 14:17:13;;;;;;;;;;;21.20;27.60;;;;;;5145786;27;19923;-61